Time;durP1;ratioP1;P1;durP2;ratioP2;P2;SDS_P1;SDS_P2;PMS_P1;PMS_P2;Temp;Humidity;BMP_temperature;BMP_pressure;BME280_temperature;BME280_humidity;BME280_pressure;Samples;Min_cycle;Max_cycle;Signal;HPM_P1;HPM_P2
2022/07/21 00:01:15;;;;;;;16.13;13.97;;;;;;;;;;5013059;28;20431;-67
2022/07/21 00:03:41;;;;;;;19.13;13.47;;;;;;;;;;5013039;28;20406;-67
2022/07/21 00:06:08;;;;;;;14.87;13.20;;;;;;;;;;5012982;28;20418;-67
2022/07/21 00:08:34;;;;;;;14.57;12.50;;;;;;;;;;5013017;28;20918;-67
2022/07/21 00:11:00;;;;;;;21.60;13.90;;;;;;;;;;5015158;28;20394;-67
2022/07/21 00:13:26;;;;;;;15.43;13.57;;;;;;;;;;5016474;28;20807;-66
2022/07/21 00:15:52;;;;;;;17.67;15.50;;;;;;;;;;4998903;28;20421;-67
2022/07/21 00:18:18;;;;;;;16.70;14.80;;;;;;;;;;4998736;28;20915;-67
2022/07/21 00:20:45;;;;;;;15.73;14.33;;;;;;;;;;5016373;28;20931;-67
2022/07/21 00:23:11;;;;;;;18.70;16.40;;;;;;;;;;5016300;28;20401;-66
2022/07/21 00:25:37;;;;;;;18.03;16.10;;;;;;;;;;5016233;28;20417;-67
2022/07/21 00:28:03;;;;;;;20.63;18.53;;;;;;;;;;5016229;28;20505;-66
2022/07/21 00:30:29;;;;;;;19.47;17.47;;;;;;;;;;5016113;28;20436;-67
2022/07/21 00:32:55;;;;;;;25.47;19.43;;;;;;;;;;5016029;28;20426;-67
2022/07/21 00:35:21;;;;;;;22.70;20.37;;;;;;;;;;5016014;28;20828;-67
2022/07/21 00:37:47;;;;;;;22.30;20.00;;;;;;;;;;5016055;28;20417;-67
2022/07/21 00:40:15;;;;;;;28.80;22.17;;;;;;;;;;5015958;28;20469;-67
2022/07/21 00:42:41;;;;;;;25.10;22.60;;;;;;;;;;5015922;28;20402;-66
2022/07/21 00:45:08;;;;;;;27.63;22.30;;;;;;;;;;5015864;28;20408;-66
2022/07/21 00:47:34;;;;;;;28.00;22.00;;;;;;;;;;5015819;28;20415;-67
2022/07/21 00:50:01;;;;;;;27.20;23.50;;;;;;;;;;5015601;28;20562;-67
2022/07/21 00:52:27;;;;;;;24.97;21.43;;;;;;;;;;5015771;28;20415;-67
2022/07/21 00:54:53;;;;;;;25.13;21.83;;;;;;;;;;5015757;28;20410;-66
2022/07/21 00:57:19;;;;;;;22.93;20.80;;;;;;;;;;5015696;28;20410;-66
2022/07/21 00:59:45;;;;;;;24.03;21.67;;;;;;;;;;5015667;28;20480;-67
2022/07/21 01:02:12;;;;;;;22.33;20.20;;;;;;;;;;5015591;28;20896;-66
2022/07/21 01:04:38;;;;;;;22.83;20.53;;;;;;;;;;5015600;28;20438;-66
2022/07/21 01:07:05;;;;;;;23.10;20.87;;;;;;;;;;5015494;28;20416;-66
2022/07/21 01:09:32;;;;;;;24.77;22.07;;;;;;;;;;5015487;28;20911;-67
2022/07/21 01:11:58;;;;;;;25.60;23.07;;;;;;;;;;5015381;28;20412;-66
2022/07/21 01:14:25;;;;;;;25.87;23.07;;;;;;;;;;5015347;28;20490;-66
2022/07/21 01:16:51;;;;;;;28.20;22.13;;;;;;;;;;5015288;28;20757;-66
2022/07/21 01:19:17;;;;;;;24.47;21.40;;;;;;;;;;5015120;28;20967;-66
2022/07/21 01:21:44;;;;;;;23.77;21.40;;;;;;;;;;5014427;28;20420;-66
2022/07/21 01:24:10;;;;;;;25.50;22.80;;;;;;;;;;5015209;28;20436;-66
2022/07/21 01:26:43;;;;;;;28.57;23.37;;;;;;;;;;5015105;28;20453;-66
2022/07/21 01:29:11;;;;;;;26.20;22.50;;;;;;;;;;5015130;28;20500;-66
2022/07/21 01:31:37;;;;;;;25.20;22.80;;;;;;;;;;4997472;28;20436;-66
2022/07/21 01:34:03;;;;;;;25.23;22.63;;;;;;;;;;5015010;28;20474;-66
2022/07/21 01:36:29;;;;;;;23.50;21.50;;;;;;;;;;4997352;28;20424;-66
2022/07/21 01:41:40;;;;;;;25.47;22.87;;;;;;;;;;5015151;28;20451;-66
2022/07/21 01:44:07;;;;;;;24.90;22.37;;;;;;;;;;5014882;28;20414;-66
2022/07/21 01:46:34;;;;;;;25.07;22.07;;;;;;;;;;5014784;28;20420;-67
2022/07/21 01:49:00;;;;;;;24.00;21.70;;;;;;;;;;5014545;28;20486;-67
2022/07/21 01:51:26;;;;;;;24.73;22.10;;;;;;;;;;5014722;28;20408;-66
2022/07/21 01:53:53;;;;;;;27.10;24.47;;;;;;;;;;4996968;28;20896;-66
2022/07/21 01:56:20;;;;;;;26.03;23.23;;;;;;;;;;5014622;28;20433;-66
2022/07/21 01:58:47;;;;;;;23.97;21.67;;;;;;;;;;5014434;28;20874;-66
2022/07/21 02:01:13;;;;;;;26.63;23.83;;;;;;;;;;5014495;28;20916;-66
2022/07/21 02:03:39;;;;;;;34.10;21.20;;;;;;;;;;5014428;28;20404;-66
2022/07/21 02:06:05;;;;;;;26.03;23.23;;;;;;;;;;5014372;28;20418;-66
2022/07/21 02:08:31;;;;;;;30.97;24.90;;;;;;;;;;4996794;28;20427;-66
2022/07/21 02:10:58;;;;;;;27.90;23.80;;;;;;;;;;5014420;28;20445;-66
2022/07/21 02:13:24;;;;;;;27.17;24.00;;;;;;;;;;5014251;28;20417;-66
2022/07/21 02:15:50;;;;;;;25.00;21.87;;;;;;;;;;5014255;28;20516;-66
2022/07/21 02:18:16;;;;;;;24.30;21.80;;;;;;;;;;5014177;28;20772;-66
2022/07/21 02:20:42;;;;;;;25.73;23.03;;;;;;;;;;4996532;28;20515;-66
2022/07/21 02:23:08;;;;;;;29.00;23.73;;;;;;;;;;5014105;28;20416;-66
2022/07/21 02:25:34;;;;;;;25.37;22.73;;;;;;;;;;5014104;28;20456;-66
2022/07/21 02:28:00;;;;;;;26.10;23.50;;;;;;;;;;5014095;28;20441;-66
2022/07/21 02:30:26;;;;;;;25.37;22.67;;;;;;;;;;5014017;28;20410;-67
2022/07/21 02:32:53;;;;;;;25.37;22.67;;;;;;;;;;5013905;28;20923;-67
2022/07/21 02:35:19;;;;;;;25.50;22.73;;;;;;;;;;5013959;28;20834;-66
2022/07/21 02:37:45;;;;;;;26.07;23.43;;;;;;;;;;5013925;28;20409;-66
2022/07/21 02:40:11;;;;;;;28.60;21.77;;;;;;;;;;5013833;28;20945;-66
2022/07/21 02:42:37;;;;;;;26.37;23.20;;;;;;;;;;4996221;28;20528;-66
2022/07/21 02:45:04;;;;;;;24.07;21.77;;;;;;;;;;4996146;28;20548;-66
2022/07/21 02:47:30;;;;;;;25.33;22.97;;;;;;;;;;5014035;28;20468;-66
2022/07/21 02:49:56;;;;;;;25.63;23.10;;;;;;;;;;5013590;28;20473;-66
2022/07/21 02:52:22;;;;;;;26.27;23.63;;;;;;;;;;5014027;28;20491;-66
2022/07/21 02:54:48;;;;;;;25.80;23.30;;;;;;;;;;5013680;28;20902;-66
2022/07/21 02:57:14;;;;;;;25.87;23.13;;;;;;;;;;5013680;28;20413;-66
2022/07/21 02:59:40;;;;;;;25.63;22.87;;;;;;;;;;5013562;28;20475;-67
2022/07/21 03:02:06;;;;;;;26.63;23.73;;;;;;;;;;5013595;28;20545;-66
2022/07/21 03:04:32;;;;;;;25.30;22.90;;;;;;;;;;5013618;28;20514;-66
2022/07/21 03:06:58;;;;;;;25.27;22.30;;;;;;;;;;5013626;28;20404;-66
2022/07/21 03:09:24;;;;;;;26.93;24.03;;;;;;;;;;5013548;28;20409;-67
2022/07/21 03:11:50;;;;;;;24.23;21.93;;;;;;;;;;5013502;28;20897;-66
2022/07/21 03:14:16;;;;;;;24.93;22.23;;;;;;;;;;5013555;28;20408;-66
2022/07/21 03:16:42;;;;;;;24.20;21.63;;;;;;;;;;5013478;28;20575;-66
2022/07/21 03:19:08;;;;;;;26.47;21.53;;;;;;;;;;5013379;28;20476;-66
2022/07/21 03:21:34;;;;;;;27.10;24.20;;;;;;;;;;5013644;28;20508;-66
2022/07/21 03:24:00;;;;;;;26.00;23.30;;;;;;;;;;5013388;28;20436;-66
2022/07/21 03:26:26;;;;;;;23.97;21.43;;;;;;;;;;4995770;28;20444;-66
2022/07/21 03:28:52;;;;;;;24.40;21.80;;;;;;;;;;5013377;28;20409;-66
2022/07/21 03:31:18;;;;;;;25.47;22.97;;;;;;;;;;5013435;28;20418;-66
2022/07/21 03:33:44;;;;;;;26.43;24.03;;;;;;;;;;5013302;28;20408;-66
2022/07/21 03:36:10;;;;;;;24.27;21.93;;;;;;;;;;5013418;28;20424;-66
2022/07/21 03:38:36;;;;;;;26.87;24.50;;;;;;;;;;5013202;28;20423;-66
2022/07/21 03:41:02;;;;;;;26.43;23.63;;;;;;;;;;5013277;28;20923;-66
2022/07/21 03:43:28;;;;;;;27.50;23.60;;;;;;;;;;5013274;28;20413;-66
2022/07/21 03:45:54;;;;;;;24.67;22.30;;;;;;;;;;5015406;28;20444;-66
2022/07/21 03:48:20;;;;;;;24.70;22.03;;;;;;;;;;5016745;28;20466;-66
2022/07/21 03:50:46;;;;;;;24.20;21.63;;;;;;;;;;5016977;28;20444;-66
2022/07/21 03:53:12;;;;;;;36.63;32.70;;;;;;;;;;5016824;28;20946;-66
2022/07/21 03:55:38;;;;;;;24.90;22.40;;;;;;;;;;5016730;28;20441;-66
2022/07/21 03:58:05;;;;;;;26.33;23.93;;;;;;;;;;4999101;28;20499;-66
2022/07/21 04:00:42;;;;;;;24.40;21.83;;;;;;;;;;5016623;28;20843;-66
2022/07/21 04:03:08;;;;;;;23.97;21.77;;;;;;;;;;5016694;28;20414;-66
2022/07/21 04:05:34;;;;;;;28.07;21.17;;;;;;;;;;5016648;28;20521;-66
2022/07/21 04:08:00;;;;;;;25.80;22.67;;;;;;;;;;5016828;28;20500;-66
2022/07/21 04:10:27;;;;;;;25.07;22.50;;;;;;;;;;5016471;28;20445;-66
2022/07/21 04:12:54;;;;;;;24.07;21.53;;;;;;;;;;5016485;28;20569;-66
2022/07/21 04:15:20;;;;;;;26.03;22.73;;;;;;;;;;5016448;28;20412;-66
2022/07/21 04:17:47;;;;;;;25.67;23.27;;;;;;;;;;5016658;28;20409;-67
2022/07/21 04:20:13;;;;;;;24.77;22.37;;;;;;;;;;5016257;28;20563;-67
2022/07/21 04:22:40;;;;;;;27.63;24.33;;;;;;;;;;5016338;28;20419;-66
2022/07/21 04:25:06;;;;;;;30.03;22.67;;;;;;;;;;5016238;28;20425;-66
2022/07/21 04:27:33;;;;;;;29.73;23.40;;;;;;;;;;5016082;28;20410;-66
2022/07/21 04:29:59;;;;;;;26.03;23.43;;;;;;;;;;5016098;28;20420;-67
2022/07/21 04:32:25;;;;;;;24.03;21.00;;;;;;;;;;5015968;28;20499;-69
2022/07/21 04:34:51;;;;;;;25.60;23.10;;;;;;;;;;5015943;28;20421;-69
2022/07/21 04:37:17;;;;;;;25.13;22.83;;;;;;;;;;5016032;28;20413;-69
2022/07/21 04:39:43;;;;;;;25.43;23.10;;;;;;;;;;5015922;28;20478;-66
2022/07/21 04:42:09;;;;;;;25.60;22.93;;;;;;;;;;5015970;28;20505;-68
2022/07/21 04:44:35;;;;;;;25.77;23.33;;;;;;;;;;5015832;28;20768;-67
2022/07/21 04:47:01;;;;;;;26.23;23.40;;;;;;;;;;5015661;28;20410;-68
2022/07/21 04:49:27;;;;;;;30.33;25.17;;;;;;;;;;5015797;28;20479;-66
2022/07/21 04:51:53;;;;;;;27.03;24.40;;;;;;;;;;5015638;28;20433;-66
2022/07/21 04:54:19;;;;;;;25.23;22.60;;;;;;;;;;5015675;28;20420;-65
2022/07/21 04:56:45;;;;;;;28.10;25.20;;;;;;;;;;5014366;28;20957;-66
2022/07/21 04:59:11;;;;;;;27.87;25.27;;;;;;;;;;5015467;28;20488;-67
2022/07/21 05:01:37;;;;;;;28.77;25.20;;;;;;;;;;5015550;28;20441;-67
2022/07/21 05:04:04;;;;;;;28.63;24.60;;;;;;;;;;4997840;28;20420;-66
2022/07/21 05:06:30;;;;;;;26.50;23.80;;;;;;;;;;5015483;28;20421;-66
2022/07/21 05:08:56;;;;;;;28.27;24.97;;;;;;;;;;5015377;28;20496;-66
2022/07/21 05:11:22;;;;;;;26.20;23.70;;;;;;;;;;5015430;28;20855;-66
2022/07/21 05:13:48;;;;;;;26.03;23.40;;;;;;;;;;5015298;28;20411;-65
2022/07/21 05:16:14;;;;;;;31.60;24.80;;;;;;;;;;5015229;28;20410;-66
2022/07/21 05:18:40;;;;;;;29.20;26.17;;;;;;;;;;5014998;28;20515;-66
2022/07/21 05:21:06;;;;;;;27.50;24.90;;;;;;;;;;5015032;28;20996;-66
2022/07/21 05:23:32;;;;;;;29.23;26.27;;;;;;;;;;4997359;28;20508;-66
2022/07/21 05:25:58;;;;;;;28.43;25.53;;;;;;;;;;5015058;28;20450;-67
2022/07/21 05:28:24;;;;;;;29.93;24.87;;;;;;;;;;5014924;28;20901;-68
2022/07/21 05:30:50;;;;;;;27.40;24.77;;;;;;;;;;5014983;28;20419;-68
2022/07/21 05:33:16;;;;;;;28.93;25.40;;;;;;;;;;5014885;28;20411;-67
2022/07/21 05:35:42;;;;;;;30.70;26.73;;;;;;;;;;5014840;28;20470;-67
2022/07/21 05:38:07;;;;;;;27.47;24.53;;;;;;;;;;5014887;28;20765;-67
2022/07/21 05:40:33;;;;;;;26.87;23.97;;;;;;;;;;5014621;28;20871;-67
2022/07/21 05:42:59;;;;;;;25.43;23.03;;;;;;;;;;5014716;28;20414;-67
2022/07/21 05:45:25;;;;;;;31.10;24.80;;;;;;;;;;5014668;28;20545;-67
2022/07/21 05:47:51;;;;;;;26.67;23.83;;;;;;;;;;5014518;28;20413;-67
2022/07/21 05:50:17;;;;;;;27.40;24.50;;;;;;;;;;5014572;28;20937;-65
2022/07/21 05:52:43;;;;;;;27.03;24.40;;;;;;;;;;5014405;28;20755;-67
2022/07/21 05:55:09;;;;;;;27.70;24.10;;;;;;;;;;5014407;28;20508;-66
2022/07/21 05:57:35;;;;;;;26.77;22.33;;;;;;;;;;5014539;28;20422;-66
2022/07/21 06:00:01;;;;;;;22.60;20.50;;;;;;;;;;5014325;28;20540;-66
2022/07/21 06:02:30;;;;;;;26.60;20.47;;;;;;;;;;5014241;28;20408;-66
2022/07/21 06:04:56;;;;;;;21.43;19.40;;;;;;;;;;4996677;28;20518;-65
2022/07/21 06:07:22;;;;;;;23.07;20.97;;;;;;;;;;5014062;28;20451;-66
2022/07/21 06:09:49;;;;;;;20.47;18.50;;;;;;;;;;5014129;28;20928;-66
2022/07/21 06:12:15;;;;;;;23.63;18.57;;;;;;;;;;5014268;28;20438;-66
2022/07/21 06:14:40;;;;;;;22.03;19.77;;;;;;;;;;5014135;28;20780;-67
2022/07/21 06:17:06;;;;;;;19.70;17.90;;;;;;;;;;5014167;28;20408;-65
2022/07/21 06:19:33;;;;;;;22.63;19.90;;;;;;;;;;5010473;28;20956;-64
2022/07/21 06:21:59;;;;;;;20.80;18.77;;;;;;;;;;4984956;28;20424;-64
2022/07/21 06:24:26;;;;;;;20.77;18.60;;;;;;;;;;5001508;28;20421;-64
2022/07/21 06:26:52;;;;;;;20.53;18.53;;;;;;;;;;5003119;28;20941;-63
2022/07/21 06:29:18;;;;;;;20.50;18.50;;;;;;;;;;5003616;28;20771;-63
2022/07/21 06:31:44;;;;;;;23.23;19.73;;;;;;;;;;5001733;28;20444;-64
2022/07/21 06:34:10;;;;;;;20.77;18.77;;;;;;;;;;5004358;28;20517;-64
2022/07/21 06:36:36;;;;;;;21.10;19.10;;;;;;;;;;4999835;28;20422;-64
2022/07/21 06:39:02;;;;;;;19.87;18.07;;;;;;;;;;4993856;28;20479;-64
2022/07/21 06:41:28;;;;;;;20.80;18.80;;;;;;;;;;4976507;28;20483;-65
2022/07/21 06:43:54;;;;;;;20.03;17.93;;;;;;;;;;4994054;28;20426;-64
2022/07/21 06:46:20;;;;;;;18.07;16.60;;;;;;;;;;4994050;28;20500;-65
2022/07/21 06:48:46;;;;;;;18.20;16.50;;;;;;;;;;4993814;28;20975;-65
2022/07/21 06:51:12;;;;;;;19.43;17.43;;;;;;;;;;4993893;28;20893;-66
2022/07/21 06:53:38;;;;;;;17.27;15.57;;;;;;;;;;4993940;28;20420;-64
2022/07/21 06:56:04;;;;;;;18.03;16.33;;;;;;;;;;4993879;28;20415;-64
2022/07/21 06:58:32;;;;;;;16.73;15.00;;;;;;;;;;4993815;28;20412;-65
2022/07/21 07:00:58;;;;;;;20.70;16.10;;;;;;;;;;4993821;28;20786;-65
2022/07/21 07:03:24;;;;;;;16.47;15.00;;;;;;;;;;4994071;28;20412;-65
2022/07/21 07:05:50;;;;;;;16.80;15.00;;;;;;;;;;4993947;28;20909;-67
2022/07/21 07:08:17;;;;;;;15.70;14.20;;;;;;;;;;4993947;28;20893;-67
2022/07/21 07:10:43;;;;;;;17.80;14.50;;;;;;;;;;4993902;28;20499;-68
2022/07/21 07:13:09;;;;;;;17.63;15.80;;;;;;;;;;4993774;28;20881;-65
2022/07/21 07:15:35;;;;;;;17.50;13.93;;;;;;;;;;4993801;28;20568;-66
2022/07/21 07:18:01;;;;;;;15.50;14.07;;;;;;;;;;4993728;28;20430;-67
2022/07/21 07:20:27;;;;;;;19.03;14.23;;;;;;;;;;4995222;28;20479;-66
2022/07/21 07:22:53;;;;;;;15.77;14.40;;;;;;;;;;4997746;28;20409;-67
2022/07/21 07:25:19;;;;;;;18.27;13.80;;;;;;;;;;4997705;28;20433;-67
2022/07/21 07:27:46;;;;;;;17.73;14.13;;;;;;;;;;4997773;28;20588;-66
2022/07/21 07:30:12;;;;;;;15.03;13.37;;;;;;;;;;4997685;28;20835;-66
2022/07/21 07:32:39;;;;;;;14.83;13.37;;;;;;;;;;4997621;28;20818;-66
2022/07/21 07:35:05;;;;;;;14.77;13.47;;;;;;;;;;4997571;28;20421;-67
2022/07/21 07:37:33;;;;;;;16.63;13.50;;;;;;;;;;4997504;28;20412;-66
2022/07/21 07:39:59;;;;;;;14.40;13.23;;;;;;;;;;4997402;28;20477;-67
2022/07/21 07:42:25;;;;;;;13.53;12.33;;;;;;;;;;4997379;28;20412;-66
2022/07/21 07:44:51;;;;;;;17.27;12.87;;;;;;;;;;4997349;28;20463;-66
2022/07/21 07:47:17;;;;;;;14.03;11.47;;;;;;;;;;4980029;28;20801;-68
2022/07/21 07:49:43;;;;;;;12.37;11.43;;;;;;;;;;4997074;28;20817;-67
2022/07/21 07:52:10;;;;;;;17.87;12.20;;;;;;;;;;4997198;28;20418;-66
2022/07/21 07:54:36;;;;;;;14.10;12.70;;;;;;;;;;4997218;28;20420;-69
2022/07/21 07:57:02;;;;;;;13.23;11.93;;;;;;;;;;4997110;28;20529;-72
2022/07/21 07:59:28;;;;;;;10.40;9.40;;;;;;;;;;4997085;28;20556;-69
2022/07/21 08:01:54;;;;;;;11.40;10.50;;;;;;;;;;4997064;28;20557;-69
2022/07/21 08:04:20;;;;;;;14.57;13.27;;;;;;;;;;4996998;28;20503;-67
2022/07/21 08:06:46;;;;;;;12.77;11.63;;;;;;;;;;4979485;28;20891;-67
2022/07/21 08:09:12;;;;;;;14.17;12.80;;;;;;;;;;4996870;28;20469;-66
2022/07/21 08:11:38;;;;;;;13.40;12.40;;;;;;;;;;4979390;28;20521;-66
2022/07/21 08:14:04;;;;;;;15.10;11.87;;;;;;;;;;4996830;28;20498;-65
2022/07/21 08:16:30;;;;;;;14.20;12.90;;;;;;;;;;4997007;28;20418;-66
2022/07/21 08:18:56;;;;;;;15.77;13.17;;;;;;;;;;4996649;28;21047;-67
2022/07/21 08:21:24;;;;;;;14.33;13.10;;;;;;;;;;4996659;28;20513;-67
2022/07/21 08:23:50;;;;;;;12.37;11.33;;;;;;;;;;4996721;28;20398;-68
2022/07/21 08:26:16;;;;;;;10.43;9.73;;;;;;;;;;4979084;28;20410;-66
2022/07/21 08:28:42;;;;;;;10.60;9.10;;;;;;;;;;4979041;28;20979;-66
2022/07/21 08:31:08;;;;;;;10.00;9.10;;;;;;;;;;4996200;28;20417;-66
2022/07/21 08:33:34;;;;;;;9.17;8.57;;;;;;;;;;4996475;28;20894;-67
2022/07/21 08:36:00;;;;;;;16.10;9.40;;;;;;;;;;4996386;28;20417;-69
2022/07/21 08:38:26;;;;;;;8.50;7.87;;;;;;;;;;4996582;28;20398;-66
2022/07/21 08:40:52;;;;;;;9.83;8.03;;;;;;;;;;4996240;28;20953;-64
2022/07/21 08:43:18;;;;;;;8.17;7.60;;;;;;;;;;4978822;28;20419;-64
2022/07/21 08:45:44;;;;;;;8.23;7.63;;;;;;;;;;4996168;28;20420;-63
2022/07/21 08:48:10;;;;;;;8.50;7.70;;;;;;;;;;4995971;28;20456;-62
2022/07/21 08:50:38;;;;;;;8.37;7.90;;;;;;;;;;4996176;28;20439;-65
2022/07/21 08:53:04;;;;;;;7.30;6.70;;;;;;;;;;4996382;28;20410;-62
2022/07/21 08:55:35;;;;;;;6.37;5.97;;;;;;;;;;4996176;28;20915;-60
2022/07/21 08:58:01;;;;;;;6.50;6.20;;;;;;;;;;4996136;28;20424;-62
2022/07/21 09:00:27;;;;;;;6.67;6.23;;;;;;;;;;4995960;28;20472;-61
2022/07/21 09:03:13;;;;;;;6.40;5.90;;;;;;;;;;4996292;28;20460;-67
2022/07/21 09:05:39;;;;;;;6.90;6.50;;;;;;;;;;4995953;28;20416;-66
2022/07/21 09:08:05;;;;;;;8.97;7.53;;;;;;;;;;4995943;28;20451;-66
2022/07/21 09:10:32;;;;;;;7.50;6.90;;;;;;;;;;4995909;28;20412;-65
2022/07/21 09:12:59;;;;;;;7.87;7.13;;;;;;;;;;4995871;28;20419;-65
2022/07/21 09:15:26;;;;;;;8.00;7.40;;;;;;;;;;4978330;28;20457;-66
2022/07/21 09:18:13;;;;;;;6.90;6.60;;;;;;;;;;4995989;28;20749;-66
2022/07/21 09:20:40;;;;;;;7.63;7.17;;;;;;;;;;4995682;28;20476;-66
2022/07/21 09:23:06;;;;;;;6.80;6.50;;;;;;;;;;4995617;28;20415;-69
2022/07/21 09:25:35;;;;;;;6.77;6.23;;;;;;;;;;4995682;28;20415;-66
2022/07/21 09:28:28;;;;;;;7.13;6.63;;;;;;;;;;4995559;28;20408;-65
2022/07/21 09:30:57;;;;;;;7.67;7.00;;;;;;;;;;4992799;28;20418;-66
2022/07/21 09:33:31;;;;;;;7.80;7.20;;;;;;;;;;4995441;28;20438;-68
2022/07/21 09:35:57;;;;;;;9.13;8.23;;;;;;;;;;4995557;28;20427;-65
2022/07/21 09:38:23;;;;;;;8.07;7.37;;;;;;;;;;4995276;28;20771;-65
2022/07/21 09:40:50;;;;;;;7.47;6.87;;;;;;;;;;4995477;28;20900;-67
2022/07/21 09:43:32;;;;;;;7.83;7.03;;;;;;;;;;4977056;28;20518;-65
2022/07/21 09:46:03;;;;;;;8.00;7.07;;;;;;;;;;4995215;28;20926;-65
2022/07/21 09:48:33;;;;;;;8.10;7.50;;;;;;;;;;4995039;28;21069;-67
2022/07/21 09:51:18;;;;;;;7.93;7.43;;;;;;;;;;4995073;28;20429;-69
2022/07/21 09:53:48;;;;;;;7.63;7.03;;;;;;;;;;4977640;28;20434;-65
2022/07/21 09:56:14;;;;;;;7.83;7.33;;;;;;;;;;4994948;28;20418;-62
2022/07/21 09:58:40;;;;;;;7.30;6.80;;;;;;;;;;4995169;28;20777;-66
2022/07/21 10:01:06;;;;;;;12.90;7.80;;;;;;;;;;4994781;28;21003;-68
2022/07/21 10:03:32;;;;;;;5.90;5.60;;;;;;;;;;4994850;28;20441;-66
2022/07/21 10:05:58;;;;;;;6.80;5.57;;;;;;;;;;4977264;28;20525;-67
2022/07/21 10:08:24;;;;;;;6.37;5.83;;;;;;;;;;4994781;28;20504;-66
2022/07/21 10:10:50;;;;;;;7.87;5.60;;;;;;;;;;4994698;28;20428;-65
2022/07/21 10:13:17;;;;;;;6.47;5.73;;;;;;;;;;4994573;28;20420;-64
2022/07/21 10:15:43;;;;;;;6.67;6.20;;;;;;;;;;4994640;28;20415;-66
2022/07/21 10:18:11;;;;;;;6.20;5.80;;;;;;;;;;4994544;28;20406;-67
2022/07/21 10:20:39;;;;;;;5.80;5.40;;;;;;;;;;4994377;28;20891;-67
2022/07/21 10:23:09;;;;;;;5.73;5.50;;;;;;;;;;4994480;28;20442;-70
2022/07/21 10:25:35;;;;;;;6.00;5.67;;;;;;;;;;4994458;28;20476;-66
2022/07/21 10:28:10;;;;;;;8.60;5.73;;;;;;;;;;4994361;28;20428;-65
2022/07/21 10:30:44;;;;;;;5.93;5.63;;;;;;;;;;4994368;28;20498;-66
2022/07/21 10:33:10;;;;;;;5.67;4.33;;;;;;;;;;4994453;28;20490;-67
2022/07/21 10:35:40;;;;;;;4.60;4.40;;;;;;;;;;4994292;28;20433;-67
2022/07/21 10:38:06;;;;;;;4.70;4.40;;;;;;;;;;4994373;28;20412;-65
2022/07/21 10:40:32;;;;;;;4.70;4.50;;;;;;;;;;4994199;28;20550;-65
2022/07/21 10:42:58;;;;;;;5.40;5.03;;;;;;;;;;4994575;28;20413;-65
2022/07/21 10:45:43;;;;;;;5.20;4.80;;;;;;;;;;4994311;28;20412;-66
2022/07/21 10:48:29;;;;;;;5.30;4.90;;;;;;;;;;4994021;28;20564;-66
2022/07/21 10:50:58;;;;;;;4.43;4.10;;;;;;;;;;4994059;28;20783;-66
2022/07/21 10:53:24;;;;;;;4.43;4.20;;;;;;;;;;4994370;28;20417;-64
2022/07/21 10:55:51;;;;;;;4.90;4.70;;;;;;;;;;4993997;28;20911;-66
2022/07/21 10:58:23;;;;;;;4.13;3.97;;;;;;;;;;4994082;28;20419;-65
2022/07/21 11:00:50;;;;;;;4.63;4.33;;;;;;;;;;4993987;28;20472;-67
2022/07/21 11:03:29;;;;;;;4.00;3.90;;;;;;;;;;4994074;28;20417;-64
2022/07/21 11:06:04;;;;;;;4.10;3.90;;;;;;;;;;4993911;28;20496;-65
2022/07/21 11:08:36;;;;;;;5.13;4.40;;;;;;;;;;4993862;28;20408;-64
2022/07/21 11:11:13;;;;;;;4.90;4.23;;;;;;;;;;4976299;28;20436;-66
2022/07/21 11:14:01;;;;;;;4.47;4.20;;;;;;;;;;4993786;28;20393;-66
2022/07/21 11:16:43;;;;;;;4.33;4.23;;;;;;;;;;4993788;28;20414;-65
2022/07/21 11:19:28;;;;;;;5.97;4.27;;;;;;;;;;4993895;28;20469;-64
2022/07/21 11:21:54;;;;;;;4.57;4.10;;;;;;;;;;4993743;28;20897;-66
2022/07/21 11:24:21;;;;;;;3.77;3.60;;;;;;;;;;4993944;28;20407;-68
2022/07/21 11:26:57;;;;;;;4.53;4.33;;;;;;;;;;4993682;28;20909;-66
2022/07/21 11:29:23;;;;;;;4.03;3.80;;;;;;;;;;4993644;28;20455;-66
2022/07/21 11:31:49;;;;;;;4.80;3.83;;;;;;;;;;4993648;28;20418;-66
2022/07/21 11:34:16;;;;;;;3.83;3.57;;;;;;;;;;4993615;28;20413;-66
2022/07/21 11:36:42;;;;;;;3.73;3.63;;;;;;;;;;4993589;28;20416;-65
2022/07/21 11:39:19;;;;;;;4.07;3.37;;;;;;;;;;4993478;28;20461;-62
2022/07/21 11:41:45;;;;;;;4.20;4.10;;;;;;;;;;4993743;28;20418;-65
2022/07/21 11:44:12;;;;;;;4.13;3.50;;;;;;;;;;4993563;28;20402;-64
2022/07/21 11:46:51;;;;;;;4.10;3.87;;;;;;;;;;4993484;28;20406;-65
2022/07/21 11:49:18;;;;;;;3.00;3.00;;;;;;;;;;4993355;28;20465;-64
2022/07/21 11:51:48;;;;;;;3.27;3.07;;;;;;;;;;4993402;28;20953;-66
2022/07/21 11:54:27;;;;;;;3.30;3.20;;;;;;;;;;4993522;28;20521;-69
2022/07/21 11:56:54;;;;;;;6.30;3.50;;;;;;;;;;4993312;28;20429;-70
2022/07/21 11:59:20;;;;;;;3.80;3.60;;;;;;;;;;4993440;28;20528;-70
2022/07/21 12:01:54;;;;;;;3.87;3.67;;;;;;;;;;4993403;28;20414;-70
2022/07/21 12:04:27;;;;;;;3.13;3.00;;;;;;;;;;4993464;28;20492;-68
2022/07/21 12:06:53;;;;;;;3.73;3.43;;;;;;;;;;4995420;28;20402;-68
2022/07/21 12:09:19;;;;;;;3.17;3.10;;;;;;;;;;4996866;28;20505;-64
2022/07/21 12:11:45;;;;;;;3.60;3.43;;;;;;;;;;4996746;28;20425;-65
2022/07/21 12:14:11;;;;;;;3.07;2.97;;;;;;;;;;4996822;28;20437;-65
2022/07/21 12:16:50;;;;;;;3.43;3.23;;;;;;;;;;4996928;28;20402;-65
2022/07/21 12:19:17;;;;;;;3.67;3.37;;;;;;;;;;4996724;28;20501;-66
2022/07/21 12:21:46;;;;;;;3.63;3.43;;;;;;;;;;4996782;28;20413;-65
2022/07/21 12:24:12;;;;;;;3.27;3.20;;;;;;;;;;4996726;28;20501;-64
2022/07/21 12:26:38;;;;;;;3.30;3.10;;;;;;;;;;4996534;28;20426;-67
2022/07/21 12:29:04;;;;;;;3.47;3.27;;;;;;;;;;4996555;28;20505;-65
2022/07/21 12:31:32;;;;;;;3.30;3.10;;;;;;;;;;4996461;28;20777;-65
2022/07/21 12:34:10;;;;;;;3.20;3.00;;;;;;;;;;4996433;28;20775;-64
2022/07/21 12:36:36;;;;;;;3.10;2.90;;;;;;;;;;4996397;28;20401;-64
2022/07/21 12:39:14;;;;;;;3.53;3.23;;;;;;;;;;4978896;28;20472;-64
2022/07/21 12:41:45;;;;;;;3.30;3.10;;;;;;;;;;4996361;28;20773;-64
2022/07/21 12:44:11;;;;;;;4.00;3.80;;;;;;;;;;4996183;28;20402;-66
2022/07/21 12:46:39;;;;;;;3.50;3.20;;;;;;;;;;4996243;28;20509;-66
2022/07/21 12:49:05;;;;;;;2.90;2.70;;;;;;;;;;4996102;28;20564;-65
2022/07/21 12:51:32;;;;;;;3.20;3.00;;;;;;;;;;4996175;28;20488;-65
2022/07/21 12:53:58;;;;;;;3.93;3.73;;;;;;;;;;4996241;28;20468;-70
2022/07/21 12:56:25;;;;;;;3.80;3.57;;;;;;;;;;4996206;28;20406;-69
2022/07/21 12:58:51;;;;;;;6.17;3.23;;;;;;;;;;4996054;28;20778;-69
2022/07/21 13:01:19;;;;;;;3.37;3.27;;;;;;;;;;4996173;28;20410;-70
2022/07/21 13:03:45;;;;;;;3.10;2.80;;;;;;;;;;4996075;28;20952;-69
2022/07/21 13:06:13;;;;;;;3.87;3.57;;;;;;;;;;4995981;28;20429;-71
2022/07/21 13:08:40;;;;;;;5.03;2.97;;;;;;;;;;4996285;28;20406;-64
2022/07/21 13:11:06;;;;;;;3.50;3.30;;;;;;;;;;4996122;28;20422;-70
2022/07/21 13:13:32;;;;;;;3.33;3.17;;;;;;;;;;4996170;28;20438;-72
2022/07/21 13:15:59;;;;;;;3.13;2.93;;;;;;;;;;4995878;28;20414;-75
2022/07/21 13:18:25;;;;;;;3.03;2.83;;;;;;;;;;4994947;28;20402;-74
2022/07/21 13:20:52;;;;;;;3.27;3.07;;;;;;;;;;4995623;28;20481;-75
2022/07/21 13:23:18;;;;;;;3.57;3.37;;;;;;;;;;4995655;28;20410;-76
2022/07/21 13:25:44;;;;;;;3.17;2.83;;;;;;;;;;4995630;28;20414;-63
2022/07/21 13:28:10;;;;;;;3.07;2.97;;;;;;;;;;4995550;28;20406;-65
2022/07/21 13:30:36;;;;;;;4.90;3.20;;;;;;;;;;4995486;28;20417;-64
2022/07/21 13:33:02;;;;;;;3.20;3.10;;;;;;;;;;4995515;28;20437;-65
2022/07/21 13:35:28;;;;;;;2.83;2.73;;;;;;;;;;4995442;28;20453;-64
2022/07/21 13:37:55;;;;;;;3.23;3.00;;;;;;;;;;4995341;28;20398;-65
2022/07/21 13:40:21;;;;;;;3.40;3.30;;;;;;;;;;4995567;28;20897;-64
2022/07/21 13:42:47;;;;;;;3.43;3.23;;;;;;;;;;4995343;28;20406;-65
2022/07/21 13:45:14;;;;;;;3.27;3.07;;;;;;;;;;4995165;28;20760;-65
2022/07/21 13:47:40;;;;;;;3.10;3.00;;;;;;;;;;4995244;28;20413;-64
2022/07/21 13:50:06;;;;;;;3.30;3.30;;;;;;;;;;4995085;28;20998;-65
2022/07/21 13:52:33;;;;;;;2.90;2.80;;;;;;;;;;4995206;28;20402;-64
2022/07/21 13:54:59;;;;;;;3.67;3.47;;;;;;;;;;4994930;28;20421;-67
2022/07/21 13:57:25;;;;;;;3.53;3.43;;;;;;;;;;4977474;28;20414;-66
2022/07/21 13:59:51;;;;;;;4.30;4.00;;;;;;;;;;4994896;28;20526;-65
2022/07/21 14:02:17;;;;;;;3.40;3.20;;;;;;;;;;4994978;28;20438;-64
2022/07/21 14:04:43;;;;;;;3.27;3.10;;;;;;;;;;4994869;28;20422;-70
2022/07/21 14:07:13;;;;;;;3.03;2.93;;;;;;;;;;4994757;28;20413;-66
2022/07/21 14:09:39;;;;;;;3.83;3.53;;;;;;;;;;4994858;28;21028;-65
2022/07/21 14:12:05;;;;;;;2.93;2.63;;;;;;;;;;4994695;28;20420;-66
2022/07/21 14:14:31;;;;;;;3.53;3.33;;;;;;;;;;4994801;28;21107;-65
2022/07/21 14:16:57;;;;;;;3.73;3.60;;;;;;;;;;4977297;28;20426;-67
2022/07/21 14:19:23;;;;;;;4.90;3.17;;;;;;;;;;4994432;28;20457;-67
2022/07/21 14:21:49;;;;;;;3.47;3.17;;;;;;;;;;4994507;28;20413;-68
2022/07/21 14:27:00;;;;;;;3.27;3.00;;;;;;;;;;4994765;28;20964;-64
2022/07/21 14:29:26;;;;;;;3.83;3.60;;;;;;;;;;4976785;28;20976;-66
2022/07/21 14:31:52;;;;;;;3.43;3.33;;;;;;;;;;4976945;28;20421;-67
2022/07/21 14:34:18;;;;;;;3.93;3.43;;;;;;;;;;4994264;28;20398;-70